Lakeland, Missouri
Current Conditions -  °F | °C
As of 3:15 PM on Friday 31 Oct 2014 (Local Time) from KAIZ Reporting Station
Clear Clear  
Wind Chill: 41°   Ceiling: Unl
Heat Index: 46°   Visibility: 10mi
Dew Point: 19°   Wind: 12mph
Humidity: 34%   Direction: 340°NNW
Pressure: 30.36"   Gusts: 22mph
Location:  38.333°N, 92.5524°W
Report Text: KAIZ 312015Z AUTO 34010G19KT 300V360 10SM CLR 08/M07 A3036 RMK AO1
Loading
Personal Weather Stations






























Interactive Weather Map
Tropical Storm Tracking
New forecast layout! Learn more

10-Day Weather Forecast

Advertisements
Track Severe Weather on mobile